createdAt,value
2017-08-23T00:00:12.075Z,7.4
2017-08-23T00:01:22.343Z,7.4
2017-08-23T00:02:32.618Z,7.4
2017-08-23T00:03:42.585Z,7.37
2017-08-23T00:04:52.541Z,7.39
2017-08-23T00:06:02.806Z,7.4
2017-08-23T00:07:12.131Z,7.4
2017-08-23T00:08:22.396Z,7.4
2017-08-23T00:09:32.664Z,7.48
2017-08-23T00:10:42.304Z,7.43
2017-08-23T00:11:52.568Z,7.5
2017-08-23T00:13:02.519Z,7.51
2017-08-23T00:14:12.798Z,7.61
2017-08-23T00:15:22.756Z,7.51
2017-08-23T00:16:33.022Z,7.53
2017-08-23T00:17:43.287Z,7.51
2017-08-23T00:18:53.240Z,7.47
2017-08-23T00:20:03.509Z,7.43
2017-08-23T00:21:13.771Z,7.43
2017-08-23T00:22:24.034Z,7.32
2017-08-23T00:23:34.311Z,7.28
2017-08-23T00:24:44.575Z,7.28
2017-08-23T00:25:54.845Z,7.26
2017-08-23T00:27:05.110Z,7.26
2017-08-23T00:28:15.078Z,7.29
2017-08-23T00:29:25.345Z,7.23
2017-08-23T00:30:35.617Z,7.26
2017-08-23T00:31:45.259Z,7.22
2017-08-23T00:32:55.214Z,7.22
2017-08-23T00:34:05.171Z,7.25
2017-08-23T00:35:15.449Z,7.13
2017-08-23T00:36:25.097Z,7.22
2017-08-23T00:37:35.363Z,7.14
2017-08-23T00:38:45.629Z,7.13
2017-08-23T00:39:55.586Z,7.18
2017-08-23T00:41:05.859Z,7.21
2017-08-23T00:42:16.135Z,7.26
2017-08-23T00:43:26.404Z,7.23
2017-08-23T00:44:36.676Z,7.22
2017-08-23T00:45:46.941Z,7.21
2017-08-23T00:46:57.203Z,7.19
2017-08-23T00:48:07.481Z,7.22
2017-08-23T00:49:17.749Z,7.23
2017-08-23T00:50:28.013Z,7.21
2017-08-23T00:51:37.972Z,7.18
2017-08-23T00:52:47.940Z,7.19
2017-08-23T00:53:58.204Z,7.15
2017-08-23T00:55:08.480Z,7.11
2017-08-23T00:56:18.745Z,7.18
2017-08-23T00:57:29.013Z,7.23
2017-08-23T00:58:38.967Z,7.14
2017-08-23T00:59:48.606Z,7.21
2017-08-23T01:00:58.870Z,7.19
2017-08-23T01:02:09.140Z,7.15
2017-08-23T01:03:19.420Z,7.15
2017-08-23T01:04:29.371Z,7.14
2017-08-23T01:05:39.638Z,7.14
2017-08-23T01:06:49.599Z,7.08
2017-08-23T01:07:59.865Z,7.07
2017-08-23T01:09:10.131Z,7.11
2017-08-23T01:10:20.400Z,7.1
2017-08-23T01:11:30.356Z,7.03
2017-08-23T01:12:40.627Z,7.05
2017-08-23T01:13:50.897Z,7.07
2017-08-23T01:15:01.165Z,7.1
2017-08-23T01:16:11.431Z,7.11
2017-08-23T01:17:21.697Z,7.05
2017-08-23T01:18:31.651Z,7.05
2017-08-23T01:19:41.609Z,6.92
2017-08-23T01:20:51.875Z,6.97
2017-08-23T01:22:02.151Z,6.89
2017-08-23T01:23:12.471Z,6.93
2017-08-23T01:24:22.429Z,6.85
2017-08-23T01:25:32.378Z,6.85
2017-08-23T01:26:42.098Z,6.8
2017-08-23T01:27:51.736Z,6.8
2017-08-23T01:29:02.005Z,6.77
2017-08-23T01:30:11.640Z,6.83
2017-08-23T01:31:21.908Z,6.8
2017-08-23T01:32:32.172Z,6.83
2017-08-23T01:33:42.124Z,6.78
2017-08-23T01:34:51.762Z,6.8
2017-08-23T01:36:02.031Z,6.9
2017-08-23T01:37:12.323Z,6.75
2017-08-23T01:38:22.279Z,6.8
2017-08-23T01:39:32.550Z,6.75
2017-08-23T01:40:42.816Z,6.83
2017-08-23T01:41:53.088Z,6.77
2017-08-23T01:43:03.038Z,6.74
2017-08-23T01:44:13.324Z,6.77
2017-08-23T01:45:23.591Z,6.71
2017-08-23T01:46:33.858Z,6.71
2017-08-23T01:47:43.812Z,6.75
2017-08-23T01:48:54.092Z,6.7
2017-08-23T01:50:04.050Z,6.62
2017-08-23T01:51:14.335Z,6.59
2017-08-23T01:52:24.604Z,6.59
2017-08-23T01:53:34.241Z,6.57
2017-08-23T01:54:44.507Z,6.67
2017-08-23T01:55:54.787Z,6.6
2017-08-23T01:57:05.056Z,6.56
2017-08-23T01:58:15.021Z,6.67
2017-08-23T01:59:25.286Z,6.64
2017-08-23T02:00:35.548Z,6.56
2017-08-23T02:01:45.500Z,6.64
2017-08-23T02:02:55.452Z,6.65
2017-08-23T02:04:05.719Z,6.64
2017-08-23T02:05:15.678Z,6.6
2017-08-23T02:06:25.629Z,6.57
2017-08-23T02:07:35.901Z,6.54
2017-08-23T02:08:45.897Z,6.54
2017-08-23T02:09:56.168Z,6.56
2017-08-23T02:11:06.434Z,6.5
2017-08-23T02:12:16.079Z,6.5
2017-08-23T02:13:26.376Z,6.52
2017-08-23T02:14:36.653Z,6.49
2017-08-23T02:15:46.921Z,6.5
2017-08-23T02:16:56.874Z,6.49
2017-08-23T02:18:06.828Z,6.39
2017-08-23T02:19:16.784Z,6.35
2017-08-23T02:20:27.050Z,6.36
2017-08-23T02:21:37.321Z,6.39
2017-08-23T02:22:47.589Z,6.31
2017-08-23T02:23:57.858Z,6.35
2017-08-23T02:25:07.821Z,6.35
2017-08-23T02:26:18.090Z,6.34
2017-08-23T02:27:28.041Z,6.26
2017-08-23T02:28:37.677Z,6.32
2017-08-23T02:29:47.943Z,6.17
2017-08-23T02:30:57.899Z,6.15
2017-08-23T02:32:08.171Z,6.2
2017-08-23T02:33:18.444Z,6.2
2017-08-23T02:34:28.721Z,6.2
2017-08-23T02:35:38.674Z,6.28
2017-08-23T02:36:48.949Z,6.19
2017-08-23T02:37:59.218Z,6.12
2017-08-23T02:39:09.493Z,6.16
2017-08-23T02:40:19.764Z,6.05
2017-08-23T02:41:30.030Z,6.09
2017-08-23T02:42:39.987Z,6.05
2017-08-23T02:43:49.946Z,6.06
2017-08-23T02:45:00.208Z,6.09
2017-08-23T02:46:10.474Z,6.02
2017-08-23T02:47:20.443Z,6.07
2017-08-23T02:48:30.710Z,6.1
2017-08-23T02:49:40.660Z,6.16
2017-08-23T02:50:50.301Z,6.1
2017-08-23T02:52:00.569Z,6.15
2017-08-23T02:53:10.520Z,6.15
2017-08-23T02:54:20.815Z,6.15
2017-08-23T02:55:31.088Z,6.09
2017-08-23T02:56:41.040Z,6.13
2017-08-23T02:57:50.991Z,6.06
2017-08-23T02:59:01.260Z,6.1
2017-08-23T03:00:11.242Z,6.01
2017-08-23T03:01:21.511Z,6.07
2017-08-23T03:02:31.777Z,6.12
2017-08-23T03:03:42.046Z,6.05
2017-08-23T03:04:52.318Z,6.09
2017-08-23T03:06:02.593Z,5.98
2017-08-23T03:07:12.860Z,6.07
2017-08-23T03:08:23.127Z,6.12
2017-08-23T03:09:33.391Z,6.15
2017-08-23T03:10:43.343Z,6.22
2017-08-23T03:11:53.609Z,6.28
2017-08-23T03:13:03.245Z,6.28
2017-08-23T03:14:13.199Z,6.39
2017-08-23T03:15:23.463Z,6.36
2017-08-23T03:16:33.730Z,6.44
2017-08-23T03:17:43.683Z,6.47
2017-08-23T03:18:53.949Z,6.49
2017-08-23T03:20:04.217Z,6.59
2017-08-23T03:21:14.179Z,6.64
2017-08-23T03:22:24.441Z,6.62
2017-08-23T03:23:34.708Z,6.62
2017-08-23T03:24:44.974Z,6.67
2017-08-23T03:25:54.301Z,6.71
2017-08-23T03:27:04.569Z,6.77
2017-08-23T03:28:14.832Z,6.75
2017-08-23T03:29:25.100Z,6.78
2017-08-23T03:30:35.372Z,6.8
2017-08-23T03:31:45.331Z,6.77
2017-08-23T03:32:55.278Z,6.72
2017-08-23T03:34:05.548Z,6.78
2017-08-23T03:35:15.190Z,6.93
2017-08-23T03:36:24.513Z,7.01
2017-08-23T03:37:34.785Z,7.03
2017-08-23T03:38:44.738Z,6.97
2017-08-23T03:39:55.011Z,7.13
2017-08-23T03:41:05.283Z,7.23
2017-08-23T03:42:15.555Z,7.14
2017-08-23T03:43:25.192Z,7.14
2017-08-23T03:44:35.145Z,7.31
2017-08-23T03:45:45.418Z,7.25
2017-08-23T03:46:55.365Z,7.31
2017-08-23T03:48:05.660Z,7.39
2017-08-23T03:49:15.611Z,7.39
2017-08-23T03:50:25.246Z,7.43
2017-08-23T03:51:35.537Z,7.4
2017-08-23T03:52:45.808Z,7.37
2017-08-23T03:53:55.765Z,7.33
2017-08-23T03:55:06.036Z,7.39
2017-08-23T03:56:16.302Z,7.43
2017-08-23T03:57:26.572Z,7.4
2017-08-23T03:58:36.842Z,7.4
2017-08-23T03:59:46.794Z,7.4
2017-08-23T04:00:56.755Z,7.41
2017-08-23T04:02:07.043Z,7.4
2017-08-23T04:03:17.317Z,7.5
2017-08-23T04:04:27.269Z,7.47
2017-08-23T04:05:37.225Z,7.47
2017-08-23T04:06:47.183Z,7.56
2017-08-23T04:07:57.134Z,7.48
2017-08-23T04:09:07.401Z,7.55
2017-08-23T04:10:17.673Z,7.48
2017-08-23T04:11:27.634Z,7.61
2017-08-23T04:12:37.913Z,7.61
2017-08-23T04:13:48.177Z,7.59
2017-08-23T04:14:58.132Z,7.56
2017-08-23T04:16:08.089Z,7.7
2017-08-23T04:17:18.356Z,7.61
2017-08-23T04:18:28.307Z,7.66
2017-08-23T04:19:38.264Z,7.61
2017-08-23T04:20:48.530Z,7.61
2017-08-23T04:21:58.796Z,7.64
2017-08-23T04:23:08.752Z,7.74
2017-08-23T04:24:19.018Z,7.66
2017-08-23T04:25:29.285Z,7.7
2017-08-23T04:26:39.554Z,7.74
2017-08-23T04:27:49.826Z,7.69
2017-08-23T04:28:59.778Z,7.7
2017-08-23T04:30:10.050Z,7.72
2017-08-23T04:31:20.318Z,7.75
2017-08-23T04:32:30.584Z,7.7
2017-08-23T04:33:40.856Z,7.67
2017-08-23T04:34:51.133Z,7.7
2017-08-23T04:36:01.084Z,7.69
2017-08-23T04:37:11.054Z,7.69
2017-08-23T04:38:20.692Z,7.77
2017-08-23T04:39:30.959Z,7.69
2017-08-23T04:40:41.234Z,7.78
2017-08-23T04:41:51.505Z,7.74
2017-08-23T04:43:01.776Z,7.8
2017-08-23T04:44:12.050Z,7.77
2017-08-23T04:45:21.700Z,7.83
2017-08-23T04:46:31.982Z,7.77
2017-08-23T04:47:42.250Z,7.75
2017-08-23T04:48:52.209Z,7.88
2017-08-23T04:50:02.482Z,7.88
2017-08-23T04:51:12.447Z,7.93
2017-08-23T04:52:22.714Z,7.96
2017-08-23T04:53:32.354Z,7.98
2017-08-23T04:54:42.621Z,8.09
2017-08-23T04:55:52.890Z,8.11
2017-08-23T04:57:02.851Z,8.17
2017-08-23T04:58:12.805Z,8.17
2017-08-23T04:59:23.075Z,8.2
2017-08-23T05:00:32.720Z,8.21
2017-08-23T05:01:42.679Z,8.2
2017-08-23T05:02:52.955Z,8.23
2017-08-23T05:04:03.222Z,8.27
2017-08-23T05:05:13.179Z,8.35
2017-08-23T05:06:23.448Z,8.36
2017-08-23T05:07:33.716Z,8.42
2017-08-23T05:08:43.681Z,8.38
2017-08-23T05:09:53.946Z,8.42
2017-08-23T05:11:03.928Z,8.46
2017-08-23T05:12:13.879Z,8.5
2017-08-23T05:13:24.153Z,8.53
2017-08-23T05:14:34.105Z,8.6
2017-08-23T05:15:44.377Z,8.66
2017-08-23T05:16:54.332Z,8.57
2017-08-23T05:18:04.288Z,8.66
2017-08-23T05:19:14.564Z,8.63
2017-08-23T05:20:24.840Z,8.68
2017-08-23T05:21:34.789Z,8.68
2017-08-23T05:22:44.757Z,8.71
2017-08-23T05:23:54.406Z,8.66
2017-08-23T05:25:04.361Z,8.72
2017-08-23T05:26:14.316Z,8.74
2017-08-23T05:27:24.583Z,8.66
2017-08-23T05:28:34.902Z,8.68
2017-08-23T05:29:45.174Z,8.74
2017-08-23T05:30:54.816Z,8.68
2017-08-23T05:32:04.812Z,8.75
2017-08-23T05:33:15.080Z,8.71
2017-08-23T05:34:25.355Z,8.82
2017-08-23T05:35:35.634Z,8.89
2017-08-23T05:36:45.905Z,8.92
2017-08-23T05:37:56.176Z,8.93
2017-08-23T05:39:06.137Z,8.92
2017-08-23T05:40:16.095Z,8.9
2017-08-23T05:41:26.364Z,8.93
2017-08-23T05:42:36.637Z,8.87
2017-08-23T05:43:46.592Z,8.99
2017-08-23T05:44:56.271Z,9.03
2017-08-23T05:46:06.539Z,9.12
2017-08-23T05:47:16.810Z,9.19
2017-08-23T05:48:26.786Z,9.15
2017-08-23T05:49:36.740Z,9.19
2017-08-23T05:50:47.010Z,9.16
2017-08-23T05:51:56.656Z,9.18
2017-08-23T05:53:06.296Z,9.12
2017-08-23T05:54:16.257Z,9.09
2017-08-23T05:55:26.213Z,9.08
2017-08-23T05:56:36.166Z,9.11
2017-08-23T05:57:46.435Z,9.09
2017-08-23T05:58:56.712Z,9.11
2017-08-23T06:00:06.990Z,9.12
2017-08-23T06:01:16.638Z,9.05
2017-08-23T06:02:26.283Z,9.09
2017-08-23T06:03:36.244Z,9.18
2017-08-23T06:04:46.207Z,9.16
2017-08-23T06:05:56.478Z,9.12
2017-08-23T06:07:06.755Z,9.21
2017-08-23T06:08:17.028Z,9.27
2017-08-23T06:09:26.997Z,9.26
2017-08-23T06:10:37.266Z,9.31
2017-08-23T06:11:47.557Z,9.4
2017-08-23T06:12:57.825Z,9.54
2017-08-23T06:14:07.783Z,9.47
2017-08-23T06:15:18.055Z,9.52
2017-08-23T06:16:28.019Z,9.45
2017-08-23T06:17:37.974Z,9.45
2017-08-23T06:18:47.933Z,9.33
2017-08-23T06:19:58.211Z,9.45
2017-08-23T06:21:08.168Z,9.45
2017-08-23T06:22:18.122Z,9.48
2017-08-23T06:23:28.077Z,9.52
2017-08-23T06:24:38.038Z,9.48
2017-08-23T06:25:48.389Z,9.47
2017-08-23T06:26:58.678Z,9.42
2017-08-23T06:28:08.958Z,9.37
2017-08-23T06:29:19.232Z,9.33
2017-08-23T06:30:29.503Z,9.26
2017-08-23T06:31:39.817Z,9.29
2017-08-23T06:32:50.094Z,9.39
2017-08-23T06:34:00.054Z,9.44
2017-08-23T06:35:10.326Z,9.36
2017-08-23T06:36:20.281Z,9.33
2017-08-23T06:37:30.567Z,9.39
2017-08-23T06:38:40.207Z,9.45
2017-08-23T06:39:50.182Z,9.47
2017-08-23T06:41:00.458Z,9.49
2017-08-23T06:42:10.412Z,9.58
2017-08-23T06:43:20.378Z,9.62
2017-08-23T06:44:30.648Z,9.63
2017-08-23T06:45:40.614Z,9.77
2017-08-23T06:46:53.221Z,9.85
2017-08-23T06:48:05.151Z,10
2017-08-23T06:49:15.417Z,9.99
2017-08-23T06:50:25.686Z,9.95
2017-08-23T06:51:35.957Z,9.91
2017-08-23T06:52:46.233Z,9.92
2017-08-23T06:53:55.878Z,10.09
2017-08-23T06:55:06.153Z,9.97
2017-08-23T06:56:16.114Z,10
2017-08-23T06:57:26.071Z,10.13
2017-08-23T06:58:36.403Z,10.18
2017-08-23T06:59:46.365Z,10.21
2017-08-23T07:00:56.633Z,10.23
2017-08-23T07:02:06.598Z,10.38
2017-08-23T07:03:16.870Z,10.42
2017-08-23T07:04:27.153Z,10.48
2017-08-23T07:05:37.429Z,10.55
2017-08-23T07:06:47.696Z,10.62
2017-08-23T07:07:57.339Z,10.59
2017-08-23T07:09:07.611Z,10.71
2017-08-23T07:10:17.569Z,10.65
2017-08-23T07:11:27.524Z,10.84
2017-08-23T07:12:37.793Z,10.89
2017-08-23T07:13:48.067Z,10.84
2017-08-23T07:14:58.335Z,10.86
2017-08-23T07:16:07.986Z,10.82
2017-08-23T07:17:18.259Z,10.82
2017-08-23T07:18:28.218Z,10.92
2017-08-23T07:19:38.173Z,10.84
2017-08-23T07:20:48.470Z,10.72
2017-08-23T07:21:58.758Z,10.71
2017-08-23T07:23:08.727Z,10.84
2017-08-23T07:24:18.686Z,10.83
2017-08-23T07:25:28.650Z,10.87
2017-08-23T07:26:38.920Z,10.86
2017-08-23T07:27:49.215Z,10.97
2017-08-23T07:28:59.492Z,10.98
2017-08-23T07:30:09.760Z,11.02
2017-08-23T07:31:19.714Z,11.02
2017-08-23T07:32:29.992Z,11.1
2017-08-23T07:33:40.261Z,11.13
2017-08-23T07:34:50.533Z,11.13
2017-08-23T07:36:00.184Z,11.2
2017-08-23T07:37:10.463Z,11.18
2017-08-23T07:38:20.736Z,11.08
2017-08-23T07:39:30.696Z,11
2017-08-23T07:40:40.965Z,10.84
2017-08-23T07:41:51.267Z,10.94
2017-08-23T07:43:01.555Z,10.92
2017-08-23T07:44:11.826Z,10.87
2017-08-23T07:45:22.095Z,10.95
2017-08-23T07:46:31.421Z,11.02
2017-08-23T07:47:41.398Z,11.07
2017-08-23T07:48:51.358Z,11.04
2017-08-23T07:50:01.632Z,11.08
2017-08-23T07:51:11.996Z,11.16
2017-08-23T07:52:21.954Z,11.15
2017-08-23T07:53:31.918Z,11.19
2017-08-23T07:54:42.191Z,11.18
2017-08-23T07:55:52.154Z,11.26
2017-08-23T07:57:02.433Z,11.31
2017-08-23T07:58:12.709Z,11.2
2017-08-23T07:59:22.674Z,11.3
2017-08-23T08:00:32.627Z,11.31
2017-08-23T08:01:42.900Z,11.4
2017-08-23T08:02:52.860Z,11.45
2017-08-23T08:04:03.143Z,11.48
2017-08-23T08:05:13.416Z,11.49
2017-08-23T08:06:23.695Z,11.59
2017-08-23T08:07:33.650Z,11.6
2017-08-23T08:08:43.605Z,11.56
2017-08-23T08:09:53.252Z,11.67
2017-08-23T08:11:03.544Z,11.58
2017-08-23T08:12:13.817Z,11.68
2017-08-23T08:13:24.090Z,11.71
2017-08-23T08:14:34.360Z,11.83
2017-08-23T08:20:08.103Z,12.15
2017-08-23T08:21:17.753Z,12.21
2017-08-23T08:22:27.392Z,12.2
2017-08-23T08:23:37.665Z,12.3
2017-08-23T08:24:47.939Z,12.4
2017-08-23T08:25:58.457Z,12.36
2017-08-23T08:27:08.734Z,12.47
2017-08-23T08:28:18.693Z,12.51
2017-08-23T08:29:28.993Z,12.48
2017-08-23T08:30:39.265Z,12.51
2017-08-23T08:31:50.907Z,12.58
2017-08-23T08:33:01.179Z,12.57
2017-08-23T08:34:11.138Z,12.63
2017-08-23T08:35:21.096Z,12.63
2017-08-23T08:36:31.088Z,12.66
2017-08-23T08:37:41.358Z,12.7
2017-08-23T08:38:51.001Z,12.65
2017-08-23T08:40:01.276Z,12.66
2017-08-23T08:41:11.550Z,12.83
2017-08-23T08:42:21.192Z,12.91
2017-08-23T08:43:31.472Z,12.98
2017-08-23T08:44:41.127Z,13.03
2017-08-23T08:45:51.399Z,13.12
2017-08-23T08:47:01.355Z,13.23
2017-08-23T08:48:11.625Z,13.2
2017-08-23T08:49:21.270Z,13.4
2017-08-23T08:50:31.551Z,13.47
2017-08-23T08:51:41.828Z,13.5
2017-08-23T08:52:52.112Z,13.68
2017-08-23T08:54:02.402Z,13.76
2017-08-23T08:55:12.724Z,13.8
2017-08-23T08:56:22.369Z,13.82
2017-08-23T08:57:32.651Z,13.98
2017-08-23T08:58:42.923Z,14.08
2017-08-23T08:59:52.887Z,14.12
2017-08-23T09:01:03.159Z,14.3
2017-08-23T09:02:13.429Z,14.34
2017-08-23T09:03:23.704Z,14.38
2017-08-23T09:04:33.975Z,14.37
2017-08-23T09:05:43.967Z,14.44
2017-08-23T09:06:52.981Z,14.59
2017-08-23T09:08:03.255Z,14.66
2017-08-23T09:09:13.525Z,14.68
2017-08-23T09:10:23.487Z,14.74
2017-08-23T09:11:33.466Z,14.73
2017-08-23T09:12:43.738Z,14.87
2017-08-23T09:13:53.696Z,14.96
2017-08-23T09:15:03.661Z,15.02
2017-08-23T09:16:13.620Z,14.94
2017-08-23T09:17:23.267Z,15.05
2017-08-23T09:18:33.538Z,15.02
2017-08-23T09:19:43.199Z,15.15
2017-08-23T09:20:53.159Z,15.18
2017-08-23T09:22:03.119Z,15.37
2017-08-23T09:23:13.399Z,15.39
2017-08-23T09:24:23.693Z,15.51
2017-08-23T09:25:33.968Z,15.54
2017-08-23T09:26:44.240Z,15.69
2017-08-23T09:27:54.209Z,15.8
2017-08-23T09:29:04.489Z,15.65
2017-08-23T09:30:14.763Z,15.73
2017-08-23T09:31:25.041Z,15.76
2017-08-23T09:32:35.315Z,15.83
2017-08-23T09:33:45.593Z,15.78
2017-08-23T09:34:55.553Z,15.85
2017-08-23T09:36:05.511Z,15.81
2017-08-23T09:37:15.787Z,15.83
2017-08-23T09:38:26.063Z,15.76
2017-08-23T09:39:36.034Z,15.8
2017-08-23T09:40:45.682Z,15.8
2017-08-23T09:41:55.957Z,15.87
2017-08-23T09:43:05.622Z,15.98
2017-08-23T09:44:15.893Z,16
2017-08-23T09:45:25.864Z,16.08
2017-08-23T09:46:36.140Z,16.09
2017-08-23T09:47:46.463Z,16
2017-08-23T09:48:56.748Z,15.98
2017-08-23T09:50:06.707Z,16
2017-08-23T09:51:16.980Z,16.06
2017-08-23T09:52:26.949Z,15.92
2017-08-23T09:53:37.224Z,16.03
2017-08-23T09:54:47.499Z,16.05
2017-08-23T09:55:57.774Z,16.09
2017-08-23T09:57:08.047Z,16.18
2017-08-23T09:58:18.012Z,16.09
2017-08-23T09:59:28.305Z,16.18
2017-08-23T10:00:38.591Z,16.28
2017-08-23T10:01:48.551Z,16.24
2017-08-23T10:02:58.824Z,16.49
2017-08-23T10:04:09.102Z,16.47
2017-08-23T10:05:19.065Z,16.46
2017-08-23T10:06:29.034Z,16.49
2017-08-23T10:07:39.308Z,16.57
2017-08-23T10:08:49.581Z,16.54
2017-08-23T10:09:59.539Z,16.64
2017-08-23T10:11:09.810Z,16.49
2017-08-23T10:12:20.082Z,16.55
2017-08-23T10:13:29.422Z,16.61
2017-08-23T10:14:39.703Z,16.5
2017-08-23T10:15:49.665Z,16.65
2017-08-23T10:16:59.326Z,16.61
2017-08-23T10:18:09.603Z,16.55
2017-08-23T10:19:19.570Z,16.61
2017-08-23T10:20:29.221Z,16.66
2017-08-23T10:21:38.872Z,16.68
2017-08-23T10:22:48.521Z,16.73
2017-08-23T10:23:58.797Z,16.79
2017-08-23T10:25:09.070Z,16.74
2017-08-23T10:26:19.344Z,16.73
2017-08-23T10:27:29.332Z,16.74
2017-08-23T10:28:39.295Z,16.72
2017-08-23T10:29:49.571Z,16.69
2017-08-23T10:30:59.852Z,16.69
2017-08-23T10:32:10.135Z,16.72
2017-08-23T10:33:20.409Z,16.72
2017-08-23T10:34:30.698Z,16.73
2017-08-23T10:35:40.348Z,16.73
2017-08-23T10:36:50.620Z,16.87
2017-08-23T10:38:00.901Z,16.8
2017-08-23T10:39:11.178Z,16.77
2017-08-23T10:40:20.822Z,16.8
2017-08-23T10:41:31.103Z,16.84
2017-08-23T10:42:41.377Z,16.74
2017-08-23T10:43:51.657Z,16.87
2017-08-23T10:45:01.618Z,16.84
2017-08-23T10:46:11.898Z,16.94
2017-08-23T10:47:22.178Z,16.94
2017-08-23T10:48:32.162Z,16.98
2017-08-23T10:49:42.126Z,17.04
2017-08-23T10:50:51.834Z,17.04
2017-08-23T10:52:02.134Z,17.13
2017-08-23T10:53:12.414Z,17.2
2017-08-23T10:54:22.696Z,17.16
2017-08-23T10:55:32.973Z,17.23
2017-08-23T10:56:43.249Z,17.23
2017-08-23T10:57:52.897Z,17.31
2017-08-23T10:59:02.875Z,17.41
2017-08-23T11:00:12.520Z,17.44
2017-08-23T11:01:22.478Z,17.52
2017-08-23T11:02:32.758Z,17.53
2017-08-23T11:03:43.034Z,17.65
2017-08-23T11:04:52.995Z,17.78
2017-08-23T11:06:02.652Z,17.88
2017-08-23T11:07:12.620Z,18
2017-08-23T11:08:22.898Z,18.09
2017-08-23T11:09:32.857Z,18.19
2017-08-23T11:10:43.130Z,18.33
2017-08-23T11:11:53.413Z,18.28
2017-08-23T11:13:03.696Z,18.33
2017-08-23T11:14:13.972Z,18.43
2017-08-23T11:15:23.953Z,18.52
2017-08-23T11:16:34.225Z,18.55
2017-08-23T11:17:43.876Z,18.53
2017-08-23T11:18:54.154Z,18.64
2017-08-23T11:20:04.429Z,18.79
2017-08-23T11:21:14.394Z,18.96
2017-08-23T11:22:24.043Z,19.27
2017-08-23T11:23:34.328Z,19.7
2017-08-23T11:24:44.605Z,20.22
2017-08-23T11:25:55.005Z,20.7
2017-08-23T11:27:05.284Z,21.05
2017-08-23T11:28:15.245Z,21.63
2017-08-23T11:29:25.218Z,21.92
2017-08-23T11:30:35.496Z,22.31
2017-08-23T11:31:45.147Z,22.62
2017-08-23T11:32:55.436Z,22.89
2017-08-23T11:34:05.084Z,22.98
2017-08-23T11:35:14.423Z,23.34
2017-08-23T11:36:24.397Z,23.76
2017-08-23T11:37:34.680Z,24.03
2017-08-23T11:38:44.651Z,24.26
2017-08-23T11:39:54.643Z,24.77
2017-08-23T11:41:04.929Z,24.99
2017-08-23T11:42:15.220Z,24.84
2017-08-23T11:43:25.510Z,24.93
2017-08-23T11:44:35.792Z,24.94
2017-08-23T11:45:45.448Z,25.07
2017-08-23T11:46:55.427Z,24.82
2017-08-23T11:48:05.400Z,24.47
2017-08-23T11:49:15.371Z,24.47
2017-08-23T11:50:25.026Z,24.48
2017-08-23T11:51:35.326Z,24.62
2017-08-23T11:52:44.985Z,24.89
2017-08-23T11:53:54.962Z,24.89
2017-08-23T11:55:04.933Z,24.99
2017-08-23T11:56:15.223Z,24.85
2017-08-23T11:57:25.512Z,24.84
2017-08-23T11:58:35.807Z,24.89
2017-08-23T11:59:45.474Z,25
2017-08-23T12:00:55.128Z,24.65
2017-08-23T12:02:05.413Z,24.32
2017-08-23T12:03:15.696Z,24.09
2017-08-23T12:04:25.990Z,23.95
2017-08-23T12:05:36.274Z,24.01
2017-08-23T12:06:46.566Z,24.01
2017-08-23T12:07:56.544Z,23.99
2017-08-23T12:09:06.518Z,24.03
2017-08-23T12:10:16.803Z,23.86
2017-08-23T12:11:27.092Z,23.73
2017-08-23T12:12:36.747Z,23.89
2017-08-23T12:13:47.042Z,23.77
2017-08-23T12:14:57.012Z,23.55
2017-08-23T12:16:06.988Z,23.32
2017-08-23T12:17:17.278Z,23.29
2017-08-23T12:18:27.250Z,23.16
2017-08-23T12:19:37.239Z,22.99
2017-08-23T12:20:46.899Z,22.95
2017-08-23T12:21:56.870Z,22.7
2017-08-23T12:23:07.149Z,22.63
2017-08-23T12:24:17.122Z,22.68
2017-08-23T12:25:27.419Z,22.84
2017-08-23T12:26:37.391Z,22.89
2017-08-23T12:27:47.362Z,23.08
2017-08-23T12:28:57.023Z,23.36
2017-08-23T12:30:07.011Z,23.94
2017-08-23T12:31:17.298Z,24.07
2017-08-23T12:32:27.583Z,24.4
2017-08-23T12:33:37.572Z,24.74
2017-08-23T12:34:47.866Z,25.06
2017-08-23T12:35:58.156Z,25.29
2017-08-23T12:37:08.439Z,25.7
2017-08-23T12:38:17.784Z,26.01
2017-08-23T12:39:28.072Z,26.16
2017-08-23T12:40:38.043Z,26.53
2017-08-23T12:41:48.012Z,26.88
2017-08-23T12:42:58.300Z,27.05
2017-08-23T12:44:08.594Z,27.48
2017-08-23T12:45:18.563Z,27.64
2017-08-23T12:46:28.861Z,27.93
2017-08-23T12:47:38.543Z,28.2
2017-08-23T12:48:48.831Z,28.45
2017-08-23T12:49:59.121Z,28.68
2017-08-23T12:51:09.428Z,29.06
2017-08-23T12:52:19.715Z,29
2017-08-23T12:53:30.005Z,29.25
2017-08-23T12:54:39.977Z,29.62
2017-08-23T12:55:49.959Z,29.61
2017-08-23T12:56:59.930Z,29.87
2017-08-23T12:58:10.234Z,29.95
2017-08-23T12:59:20.218Z,30.01
2017-08-23T13:00:30.191Z,30.11
2017-08-23T13:01:40.479Z,30.32
2017-08-23T13:02:50.458Z,30.48
2017-08-23T13:04:00.432Z,30.71
2017-08-23T13:05:10.417Z,31.08
2017-08-23T13:06:20.706Z,31.23
2017-08-23T13:07:31.005Z,31.36
2017-08-23T13:08:40.983Z,31.08
2017-08-23T13:09:51.241Z,31.08
2017-08-23T13:11:00.637Z,30.78
2017-08-23T13:12:10.929Z,30.49
2017-08-23T13:13:19.962Z,30.26
2017-08-23T13:14:30.258Z,30.31
2017-08-23T13:15:40.544Z,30.29
2017-08-23T13:16:50.517Z,30.21
2017-08-23T13:17:59.543Z,30.17
2017-08-23T13:19:08.895Z,30.26
2017-08-23T13:20:18.243Z,30.03
2017-08-23T13:21:28.223Z,29.65
2017-08-23T13:22:38.514Z,29.39
2017-08-23T13:23:48.888Z,29.12
2017-08-23T13:24:59.180Z,28.78
2017-08-23T13:26:09.468Z,28.46
2017-08-23T13:27:19.125Z,28.5
2017-08-23T13:28:29.113Z,28.65
2017-08-23T13:29:39.277Z,29.09
2017-08-23T13:30:49.577Z,29.32
2017-08-23T13:31:59.552Z,29.59
2017-08-23T13:33:08.904Z,29.67
2017-08-23T13:34:19.201Z,29.81
2017-08-23T13:35:29.512Z,30.08
2017-08-23T13:36:39.799Z,29.99
2017-08-23T13:37:49.771Z,30.4
2017-08-23T13:38:59.431Z,30.33
2017-08-23T13:40:09.092Z,30.33
2017-08-23T13:41:19.085Z,30.23
2017-08-23T13:42:29.372Z,29.96
2017-08-23T13:43:39.351Z,29.8
2017-08-23T13:44:49.643Z,29.79
2017-08-23T13:45:59.617Z,29.53
2017-08-23T13:47:09.905Z,29.84
2017-08-23T13:48:19.564Z,30.2
2017-08-23T13:49:29.222Z,30.43
2017-08-23T13:50:39.207Z,30.81
2017-08-23T13:51:49.206Z,30.85
2017-08-23T13:52:59.179Z,31.1
2017-08-23T13:54:09.150Z,31.11
2017-08-23T13:55:19.150Z,31.45
2017-08-23T13:56:28.557Z,31.44
2017-08-23T13:57:38.852Z,31.64
2017-08-23T13:58:49.136Z,31.47
2017-08-23T13:59:59.115Z,31.39
2017-08-23T14:01:09.093Z,31.32
2017-08-23T14:02:19.068Z,31.47
2017-08-23T14:03:29.057Z,31.45
2017-08-23T14:04:39.351Z,31.44
2017-08-23T14:05:49.326Z,31.44
2017-08-23T14:06:59.014Z,31.23
2017-08-23T14:08:09.305Z,31.07
2017-08-23T14:09:19.280Z,30.61
2017-08-23T14:10:29.257Z,30.4
2017-08-23T14:11:39.544Z,30.13
2017-08-23T14:12:49.518Z,29.77
2017-08-23T14:13:59.811Z,29.43
2017-08-23T14:15:09.154Z,29.43
2017-08-23T14:16:19.126Z,29.28
2017-08-23T14:17:29.102Z,29.06
2017-08-23T14:18:39.393Z,29.28
2017-08-23T14:19:49.421Z,29.31
2017-08-23T14:20:59.709Z,29.4
2017-08-23T14:22:09.685Z,29.46
2017-08-23T14:23:19.774Z,29.64
2017-08-23T14:24:30.070Z,30.02
2017-08-23T14:25:40.095Z,30.13
2017-08-23T14:26:50.065Z,30.24
2017-08-23T14:28:00.053Z,30.26
2017-08-23T14:29:10.343Z,30.48
2017-08-23T14:30:20.039Z,30.56
2017-08-23T14:31:29.913Z,30.55
2017-08-23T14:32:40.072Z,30.4
2017-08-23T14:33:50.584Z,30.31
2017-08-23T14:35:00.559Z,29.94
2017-08-23T14:36:10.852Z,29.83
2017-08-23T14:37:21.142Z,29.71
2017-08-23T14:38:31.435Z,29.92
2017-08-23T14:39:41.445Z,30.29
2017-08-23T14:40:51.108Z,30.49
2017-08-23T14:42:01.078Z,30.46
2017-08-23T14:43:11.051Z,30.73
2017-08-23T14:44:21.025Z,31.13
2017-08-23T14:45:31.317Z,31.5
2017-08-23T14:46:40.976Z,31.69
2017-08-23T14:47:50.978Z,32.09
2017-08-23T14:49:01.273Z,32.46
2017-08-23T14:50:11.607Z,32.6
2017-08-23T14:51:21.576Z,32.37
2017-08-23T14:52:31.248Z,32.26
2017-08-23T14:53:40.906Z,32.35
2017-08-23T14:54:50.565Z,32.27
2017-08-23T14:56:00.862Z,32.02
2017-08-23T14:57:10.214Z,31.89
2017-08-23T14:58:20.509Z,31.81
2017-08-23T14:59:30.797Z,31.9
2017-08-23T15:00:40.770Z,31.85
2017-08-23T15:01:50.743Z,31.78
2017-08-23T15:03:01.037Z,31.72
2017-08-23T15:04:11.015Z,31.85
2017-08-23T15:05:20.680Z,32.16
2017-08-23T15:06:30.973Z,32.11
2017-08-23T15:07:41.262Z,32.37
2017-08-23T15:08:51.237Z,32.63
2017-08-23T15:10:01.533Z,32.9
2017-08-23T15:11:11.831Z,32.73
2017-08-23T15:12:22.122Z,33.12
2017-08-23T15:13:31.786Z,33
2017-08-23T15:14:42.084Z,33.45
2017-08-23T15:15:52.067Z,33.72
2017-08-23T15:17:02.353Z,33.63
2017-08-23T15:18:12.335Z,33.75
2017-08-23T15:19:22.308Z,33.6
2017-08-23T15:20:32.282Z,33.7
2017-08-23T15:21:42.573Z,33.72
2017-08-23T15:22:52.862Z,33.81
2017-08-23T15:24:03.154Z,34.03